createdAt,value
2019-01-22T00:01:55.434Z,70.30
2019-01-22T00:04:56.419Z,70.20
2019-01-22T00:07:57.826Z,70.30
2019-01-22T00:10:58.539Z,70.20
2019-01-22T00:13:59.206Z,70.30
2019-01-22T00:16:59.880Z,70.30
2019-01-22T00:20:00.530Z,70.20
2019-01-22T00:23:07.450Z,70.10
2019-01-22T00:26:08.372Z,70.10
2019-01-22T00:29:08.982Z,70.10
2019-01-22T00:32:09.716Z,70.10
2019-01-22T00:35:10.330Z,70.10
2019-01-22T00:38:15.372Z,70.10
2019-01-22T00:41:16.143Z,70.00
2019-01-22T00:44:16.839Z,70.00
2019-01-22T00:47:17.459Z,70.00
2019-01-22T00:50:19.367Z,70.00
2019-01-22T00:53:19.940Z,70.00
2019-01-22T00:56:20.766Z,70.10
2019-01-22T00:59:21.536Z,70.00
2019-01-22T01:02:22.246Z,69.90
2019-01-22T01:05:23.330Z,69.90
2019-01-22T01:08:23.977Z,69.90
2019-01-22T01:11:24.658Z,69.90
2019-01-22T01:14:25.285Z,69.90
2019-01-22T01:17:26.319Z,70.00
2019-01-22T01:20:26.962Z,69.80
2019-01-22T01:23:27.582Z,69.70
2019-01-22T01:26:28.326Z,70.40
2019-01-22T01:29:28.947Z,69.70
2019-01-22T01:32:29.559Z,69.70
2019-01-22T01:35:30.203Z,69.60
2019-01-22T01:38:30.866Z,69.50
2019-01-22T01:41:31.581Z,69.70
2019-01-22T01:44:33.867Z,69.70
2019-01-22T01:47:34.495Z,69.70
2019-01-22T01:50:37.459Z,69.70
2019-01-22T01:53:38.199Z,69.60
2019-01-22T01:56:38.744Z,69.60
2019-01-22T01:59:40.049Z,69.70
2019-01-22T02:02:40.678Z,69.60
2019-01-22T02:05:41.407Z,69.60
2019-01-22T02:08:42.167Z,69.60
2019-01-22T02:11:42.778Z,69.60
2019-01-22T02:14:53.638Z,69.70
2019-01-22T02:18:58.167Z,69.60
2019-01-22T02:22:17.575Z,69.60
2019-01-22T02:25:34.948Z,69.70
2019-01-22T02:28:57.122Z,69.70
2019-01-22T02:32:29.346Z,69.60
2019-01-22T02:35:57.225Z,69.60
2019-01-22T02:39:24.996Z,69.50
2019-01-22T02:42:58.452Z,69.50
2019-01-22T02:46:22.584Z,69.40
2019-01-22T02:49:48.226Z,69.40
2019-01-22T02:52:57.235Z,69.40
2019-01-22T02:56:44.416Z,69.40
2019-01-22T03:00:17.707Z,69.50
2019-01-22T03:03:52.484Z,69.40
2019-01-22T03:07:31.272Z,69.40
2019-01-22T03:11:02.663Z,69.60
2019-01-22T03:14:47.331Z,69.50
2019-01-22T03:18:32.075Z,69.50
2019-01-22T03:21:44.344Z,69.50
2019-01-22T03:25:16.024Z,69.40
2019-01-22T03:28:44.883Z,69.40
2019-01-22T03:32:00.168Z,69.40
2019-01-22T03:35:23.170Z,69.50
2019-01-22T03:38:47.749Z,69.50
2019-01-22T03:42:19.399Z,69.50
2019-01-22T03:46:04.368Z,69.60
2019-01-22T03:49:33.659Z,69.60
2019-01-22T03:52:59.570Z,69.60
2019-01-22T03:56:42.567Z,69.50
2019-01-22T03:59:43.210Z,69.50
2019-01-22T04:02:45.419Z,69.50
2019-01-22T04:05:48.794Z,69.50
2019-01-22T04:08:50.177Z,69.40
2019-01-22T04:11:54.539Z,69.40
2019-01-22T04:14:55.541Z,69.40
2019-01-22T04:17:56.094Z,69.50
2019-01-22T04:20:56.639Z,69.50
2019-01-22T04:24:27.558Z,69.50
2019-01-22T04:28:12.508Z,69.60
2019-01-22T04:31:56.648Z,69.60
2019-01-22T04:35:53.119Z,69.60
2019-01-22T04:39:36.291Z,69.60
2019-01-22T04:43:30.167Z,69.50
2019-01-22T04:47:20.437Z,69.50
2019-01-22T04:50:41.255Z,69.60
2019-01-22T04:54:09.828Z,69.50
2019-01-22T04:57:43.034Z,69.60
2019-01-22T05:01:18.966Z,69.60
2019-01-22T05:04:31.750Z,69.70
2019-01-22T05:07:48.465Z,69.70
2019-01-22T05:11:24.771Z,69.60
2019-01-22T05:14:56.546Z,69.80
2019-01-22T05:18:41.523Z,69.70
2019-01-22T05:22:23.375Z,69.70
2019-01-22T05:25:52.082Z,69.80
2019-01-22T05:29:18.607Z,69.70
2019-01-22T05:32:49.346Z,69.70
2019-01-22T05:36:27.806Z,69.70
2019-01-22T05:40:00.374Z,69.70
2019-01-22T05:44:00.475Z,69.80
2019-01-22T05:47:32.903Z,69.80
2019-01-22T05:51:11.428Z,69.70
2019-01-22T05:54:34.959Z,69.70
2019-01-22T05:58:11.973Z,69.70
2019-01-22T06:01:29.892Z,69.70
2019-01-22T06:05:07.566Z,69.80
2019-01-22T06:08:47.829Z,69.90
2019-01-22T06:12:40.882Z,69.80
2019-01-22T06:16:06.978Z,69.80
2019-01-22T06:19:39.314Z,69.80
2019-01-22T06:23:17.376Z,69.80
2019-01-22T06:26:39.686Z,69.80
2019-01-22T06:30:24.741Z,70.50
2019-01-22T06:34:16.995Z,69.80
2019-01-22T06:37:45.547Z,69.80
2019-01-22T06:41:12.654Z,69.70
2019-01-22T06:44:50.380Z,69.70
2019-01-22T06:48:22.867Z,69.80
2019-01-22T06:51:52.309Z,69.80
2019-01-22T06:55:31.712Z,69.80
2019-01-22T06:58:47.962Z,69.80
2019-01-22T07:02:04.119Z,70.00
2019-01-22T07:05:30.949Z,70.00
2019-01-22T07:09:30.498Z,69.90
2019-01-22T07:12:55.610Z,70.50
2019-01-22T07:16:45.653Z,70.80
2019-01-22T07:20:21.004Z,71.00
2019-01-22T07:23:49.945Z,70.80
2019-01-22T07:27:12.684Z,70.70
2019-01-22T07:30:45.567Z,70.60
2019-01-22T07:34:54.425Z,70.50
2019-01-22T07:38:28.640Z,70.50
2019-01-22T07:41:54.505Z,70.40
2019-01-22T07:45:17.871Z,70.50
2019-01-22T07:48:23.740Z,70.50
2019-01-22T07:51:48.319Z,70.60
2019-01-22T07:55:49.266Z,70.80
2019-01-22T07:59:02.217Z,70.80
2019-01-22T08:02:56.243Z,70.70
2019-01-22T08:06:22.513Z,70.70
2019-01-22T08:10:08.370Z,70.50
2019-01-22T08:13:48.127Z,70.60
2019-01-22T08:17:25.371Z,70.60
2019-01-22T08:21:13.435Z,70.60
2019-01-22T08:25:00.595Z,70.50
2019-01-22T08:28:41.472Z,70.50
2019-01-22T08:32:18.397Z,70.50
2019-01-22T08:35:55.907Z,70.50
2019-01-22T08:39:34.746Z,70.40
2019-01-22T08:43:07.056Z,70.70
2019-01-22T08:46:45.710Z,70.40
2019-01-22T08:50:23.361Z,70.90
2019-01-22T08:54:08.361Z,70.50
2019-01-22T08:57:55.815Z,70.50
2019-01-22T09:01:16.127Z,70.50
2019-01-22T09:05:07.715Z,70.50
2019-01-22T09:08:22.891Z,70.50
2019-01-22T09:11:58.519Z,70.60
2019-01-22T09:15:43.619Z,70.50
2019-01-22T09:19:33.986Z,70.50
2019-01-22T09:23:03.845Z,70.40
2019-01-22T09:26:48.917Z,70.40
2019-01-22T09:30:02.714Z,70.50
2019-01-22T09:33:30.349Z,70.40
2019-01-22T09:36:53.494Z,70.30
2019-01-22T09:39:54.117Z,70.30
2019-01-22T09:42:54.641Z,70.10
2019-01-22T09:45:55.290Z,70.20
2019-01-22T09:48:56.412Z,70.20
2019-01-22T09:51:57.036Z,70.30
2019-01-22T09:55:00.233Z,70.10
2019-01-22T09:58:00.816Z,70.20
2019-01-22T10:01:01.417Z,70.10
2019-01-22T10:04:03.607Z,70.10
2019-01-22T10:07:08.529Z,70.00
2019-01-22T10:10:12.880Z,70.20
2019-01-22T10:13:13.538Z,70.00
2019-01-22T10:16:14.174Z,70.10
2019-01-22T10:19:14.981Z,70.00
2019-01-22T10:22:15.691Z,70.10
2019-01-22T10:25:16.302Z,70.00
2019-01-22T10:28:23.210Z,70.00
2019-01-22T10:31:23.782Z,70.00
2019-01-22T10:34:24.353Z,70.00
2019-01-22T10:37:26.931Z,70.00
2019-01-22T10:40:27.342Z,70.10
2019-01-22T10:43:27.927Z,70.10
2019-01-22T10:46:28.895Z,70.20
2019-01-22T10:49:29.742Z,70.00
2019-01-22T10:52:30.387Z,70.10
2019-01-22T10:55:36.257Z,70.20
2019-01-22T10:58:33.497Z,70.10
2019-01-22T11:01:34.307Z,70.20
2019-01-22T11:04:35.353Z,70.10
2019-01-22T11:07:36.096Z,70.00
2019-01-22T11:10:36.690Z,70.00
2019-01-22T11:13:38.782Z,70.20
2019-01-22T11:16:39.349Z,70.10
2019-01-22T11:19:41.416Z,70.10
2019-01-22T11:22:41.974Z,70.10
2019-01-22T11:25:43.651Z,70.00
2019-01-22T11:28:46.421Z,69.90
2019-01-22T11:31:47.090Z,70.00
2019-01-22T11:34:47.631Z,69.60
2019-01-22T11:37:48.292Z,69.60
2019-01-22T11:40:54.013Z,69.70
2019-01-22T11:43:54.669Z,69.70
2019-01-22T11:46:55.319Z,69.40
2019-01-22T11:49:55.867Z,69.50
2019-01-22T11:52:56.839Z,69.40
2019-01-22T11:55:57.420Z,69.30
2019-01-22T11:58:58.011Z,69.20
2019-01-22T12:01:58.649Z,69.20
2019-01-22T12:04:59.247Z,70.00
2019-01-22T12:08:05.346Z,69.10
2019-01-22T12:11:06.270Z,69.10
2019-01-22T12:14:06.890Z,69.10
2019-01-22T12:17:07.520Z,69.00
2019-01-22T12:20:12.549Z,69.00
2019-01-22T12:23:13.617Z,69.10
2019-01-22T12:26:15.506Z,69.10
2019-01-22T12:29:17.561Z,69.20
2019-01-22T12:32:18.162Z,69.10
2019-01-22T12:35:21.579Z,69.10
2019-01-22T12:38:22.141Z,69.10
2019-01-22T12:41:22.734Z,69.20
2019-01-22T12:44:23.334Z,69.20
2019-01-22T12:47:27.126Z,69.20
2019-01-22T12:50:28.593Z,69.20
2019-01-22T12:53:30.201Z,69.20
2019-01-22T12:56:30.847Z,69.30
2019-01-22T12:59:33.575Z,69.40
2019-01-22T13:02:34.230Z,69.30
2019-01-22T13:05:44.634Z,69.30
2019-01-22T13:08:45.220Z,69.40
2019-01-22T13:11:46.159Z,69.20
2019-01-22T13:14:46.843Z,69.30
2019-01-22T13:17:47.603Z,69.30
2019-01-22T13:20:50.470Z,69.20
2019-01-22T13:23:51.153Z,69.20
2019-01-22T13:26:52.213Z,70.10
2019-01-22T13:29:52.902Z,69.90
2019-01-22T13:32:53.687Z,69.70
2019-01-22T13:35:54.496Z,69.70
2019-01-22T13:38:55.116Z,69.80
2019-01-22T13:41:55.869Z,69.80
2019-01-22T13:44:58.489Z,69.60
2019-01-22T13:48:00.020Z,69.60
2019-01-22T13:51:00.672Z,69.80
2019-01-22T13:54:01.293Z,69.70
2019-01-22T13:57:04.656Z,69.70
2019-01-22T14:00:07.143Z,70.40
2019-01-22T14:03:09.644Z,69.60
2019-01-22T14:06:10.747Z,69.70
2019-01-22T14:09:11.357Z,70.40
2019-01-22T14:12:12.026Z,69.80
2019-01-22T14:15:25.404Z,69.80
2019-01-22T14:18:26.005Z,69.90
2019-01-22T14:21:26.607Z,70.00
2019-01-22T14:24:27.235Z,69.90
2019-01-22T14:27:28.029Z,69.80
2019-01-22T14:30:31.290Z,69.60
2019-01-22T14:33:31.964Z,69.70
2019-01-22T14:36:34.408Z,69.50
2019-01-22T14:39:35.048Z,69.30
2019-01-22T14:42:38.388Z,69.40
2019-01-22T14:45:40.753Z,68.90
2019-01-22T14:48:44.386Z,69.00
2019-01-22T14:51:45.366Z,68.90
2019-01-22T14:54:46.217Z,68.80
2019-01-22T14:57:50.443Z,68.70
2019-01-22T15:00:51.491Z,55.00
2019-01-22T15:03:52.426Z,51.00
2019-01-22T15:06:53.406Z,50.50
2019-01-22T15:09:57.017Z,50.70
2019-01-22T15:12:59.812Z,53.00
2019-01-22T15:16:00.476Z,58.50
2019-01-22T15:19:01.183Z,58.80
2019-01-22T15:22:01.820Z,59.00
2019-01-22T15:25:03.403Z,59.00
2019-01-22T15:28:04.229Z,59.20
2019-01-22T15:31:04.990Z,59.20
2019-01-22T15:34:05.971Z,59.60
2019-01-22T15:37:06.525Z,59.80
2019-01-22T15:40:10.278Z,60.30
2019-01-22T15:43:16.386Z,60.50
2019-01-22T15:46:18.875Z,61.00
2019-01-22T15:49:21.869Z,61.30
2019-01-22T15:52:22.611Z,60.60
2019-01-22T15:55:27.652Z,61.40
2019-01-22T15:58:28.367Z,61.80
2019-01-22T16:01:29.337Z,62.30
2019-01-22T16:04:29.969Z,62.60
2019-01-22T16:07:35.855Z,62.70
2019-01-22T16:10:40.495Z,62.80
2019-01-22T16:13:41.270Z,62.20
2019-01-22T16:16:42.078Z,61.50
2019-01-22T16:19:44.449Z,62.10
2019-01-22T16:22:45.169Z,62.00
2019-01-22T16:25:45.876Z,61.50
2019-01-22T16:28:52.687Z,61.80
2019-01-22T16:31:53.385Z,61.90
2019-01-22T16:34:53.988Z,62.20
2019-01-22T16:37:55.787Z,62.40
2019-01-22T16:40:56.862Z,62.50
2019-01-22T16:43:57.719Z,62.80
2019-01-22T16:46:58.595Z,63.00
2019-01-22T16:49:59.429Z,63.30
2019-01-22T16:53:01.856Z,63.30
2019-01-22T16:56:08.346Z,63.60
2019-01-22T16:59:09.178Z,63.60
2019-01-22T17:02:10.020Z,64.40
2019-01-22T17:05:11.809Z,63.90
2019-01-22T17:08:12.907Z,63.90
2019-01-22T17:11:13.686Z,63.90
2019-01-22T17:14:14.295Z,64.10
2019-01-22T17:17:15.061Z,64.10
2019-01-22T17:20:19.713Z,64.30
2019-01-22T17:23:20.832Z,64.30
2019-01-22T17:26:21.573Z,64.40
2019-01-22T17:29:22.338Z,64.50
2019-01-22T17:32:35.706Z,64.70
2019-01-22T17:35:42.648Z,64.60
2019-01-22T17:38:43.586Z,64.80
2019-01-22T17:41:44.226Z,64.80
2019-01-22T17:44:44.926Z,64.90
2019-01-22T17:47:46.052Z,65.10
2019-01-22T17:50:46.779Z,65.00
2019-01-22T17:53:47.532Z,65.10
2019-01-22T17:56:48.411Z,65.10
2019-01-22T17:59:50.060Z,65.20
2019-01-22T18:02:51.176Z,65.30
2019-01-22T18:05:53.244Z,65.30
2019-01-22T18:08:53.922Z,65.40
2019-01-22T18:11:54.551Z,65.50
2019-01-22T18:14:55.187Z,65.40
2019-01-22T18:17:56.097Z,65.60
2019-01-22T18:20:56.923Z,65.60
2019-01-22T18:23:57.570Z,65.70
2019-01-22T18:26:58.501Z,65.80
2019-01-22T18:29:59.247Z,65.70
2019-01-22T18:33:03.176Z,65.80
2019-01-22T18:36:04.009Z,65.80
2019-01-22T18:39:06.865Z,66.00
2019-01-22T18:42:10.253Z,65.90
2019-01-22T18:45:12.808Z,66.00
2019-01-22T18:48:15.225Z,66.10
2019-01-22T18:51:16.598Z,66.10
2019-01-22T18:54:17.273Z,66.20
2019-01-22T18:57:18.296Z,66.10
2019-01-22T19:00:21.208Z,66.10
2019-01-22T19:03:22.283Z,66.10
2019-01-22T19:06:23.202Z,66.10
2019-01-22T19:09:26.674Z,66.10
2019-01-22T19:12:30.533Z,66.10
2019-01-22T19:15:33.735Z,66.20
2019-01-22T19:18:34.493Z,66.20
2019-01-22T19:21:35.491Z,66.10
2019-01-22T19:24:38.297Z,66.20
2019-01-22T19:27:42.780Z,66.10
2019-01-22T19:30:41.770Z,66.20
2019-01-22T19:33:42.562Z,66.30
2019-01-22T19:36:43.323Z,66.30
2019-01-22T19:39:44.139Z,66.20
2019-01-22T19:42:44.862Z,66.20
2019-01-22T19:45:45.713Z,66.20
2019-01-22T19:48:46.573Z,66.30
2019-01-22T19:51:47.729Z,66.30
2019-01-22T19:54:48.472Z,66.30
2019-01-22T19:57:49.762Z,66.30
2019-01-22T20:00:52.768Z,66.40
2019-01-22T20:03:53.948Z,66.40
2019-01-22T20:06:55.201Z,66.50
2019-01-22T20:09:58.868Z,66.50
2019-01-22T20:12:59.442Z,67.20
2019-01-22T20:16:00.207Z,66.60
2019-01-22T20:19:02.106Z,66.70
2019-01-22T20:22:02.972Z,66.70
2019-01-22T20:25:03.760Z,66.70
2019-01-22T20:28:04.586Z,66.70
2019-01-22T20:31:05.534Z,66.70
2019-01-22T20:34:06.456Z,66.80
2019-01-22T20:37:07.281Z,66.80
2019-01-22T20:40:11.004Z,66.90
2019-01-22T20:43:11.746Z,66.90
2019-01-22T20:46:12.694Z,66.90
2019-01-22T20:49:13.464Z,67.00
2019-01-22T20:52:14.522Z,67.00
2019-01-22T20:55:17.096Z,66.90
2019-01-22T20:58:17.890Z,66.90
2019-01-22T21:01:20.631Z,67.00
2019-01-22T21:04:21.710Z,66.90
2019-01-22T21:07:22.455Z,67.20
2019-01-22T21:10:34.640Z,67.20
2019-01-22T21:13:35.549Z,67.90
2019-01-22T21:16:36.455Z,67.80
2019-01-22T21:19:37.132Z,67.80
2019-01-22T21:22:38.354Z,67.90
2019-01-22T21:25:39.092Z,67.90
2019-01-22T21:28:39.915Z,67.40
2019-01-22T21:31:40.926Z,67.90
2019-01-22T21:34:48.085Z,67.80
2019-01-22T21:37:49.963Z,67.90
2019-01-22T21:40:51.759Z,67.90
2019-01-22T21:43:54.640Z,67.80
2019-01-22T21:46:55.891Z,67.90
2019-01-22T21:49:56.902Z,67.80
2019-01-22T21:52:57.627Z,67.90
2019-01-22T21:55:58.655Z,68.60
2019-01-22T21:58:59.432Z,67.90
2019-01-22T22:02:00.485Z,67.90
2019-01-22T22:05:01.527Z,68.00
2019-01-22T22:08:02.453Z,68.00
2019-01-22T22:11:03.155Z,68.00
2019-01-22T22:14:04.319Z,68.00
2019-01-22T22:17:04.801Z,68.10
2019-01-22T22:20:07.508Z,68.70
2019-01-22T22:23:08.162Z,68.00
2019-01-22T22:26:10.132Z,68.20
2019-01-22T22:29:10.771Z,68.10
2019-01-22T22:32:11.386Z,68.10
2019-01-22T22:35:14.757Z,68.00
2019-01-22T22:38:15.411Z,68.10
2019-01-22T22:41:16.058Z,68.10
2019-01-22T22:44:19.420Z,68.10
2019-01-22T22:47:20.073Z,68.10
2019-01-22T22:50:23.249Z,68.00
2019-01-22T22:53:24.255Z,68.20
2019-01-22T22:56:25.188Z,68.20
2019-01-22T22:59:25.941Z,68.20
2019-01-22T23:02:26.618Z,68.20
2019-01-22T23:05:27.427Z,68.10
2019-01-22T23:08:28.319Z,68.20
2019-01-22T23:11:29.220Z,67.70
2019-01-22T23:14:29.946Z,68.20
2019-01-22T23:17:30.523Z,68.20
2019-01-22T23:20:32.271Z,68.20
2019-01-22T23:23:33.228Z,68.20
2019-01-22T23:26:33.923Z,68.90
2019-01-22T23:29:34.763Z,68.30
2019-01-22T23:32:35.348Z,68.90
2019-01-22T23:35:35.953Z,68.20
2019-01-22T23:38:36.538Z,68.20
2019-01-22T23:41:37.218Z,68.20
2019-01-22T23:44:37.888Z,68.30
2019-01-22T23:47:38.550Z,68.20
2019-01-22T23:50:41.471Z,68.90
2019-01-22T23:53:42.081Z,68.20
2019-01-22T23:56:42.824Z,68.30
2019-01-22T23:59:43.411Z,68.30
